createdAt,value
2022-12-26T00:00:31.799Z,10.42
2022-12-26T00:02:58.395Z,10.45
2022-12-26T00:05:24.914Z,10.39
2022-12-26T00:07:51.393Z,10.40
2022-12-26T00:10:17.903Z,10.39
2022-12-26T00:12:44.467Z,10.43
2022-12-26T00:15:11.336Z,10.49
2022-12-26T00:17:37.914Z,10.52
2022-12-26T00:20:05.204Z,10.49
2022-12-26T00:22:31.696Z,10.47
2022-12-26T00:24:58.156Z,10.48
2022-12-26T00:27:24.597Z,10.47
2022-12-26T00:29:51.116Z,10.42
2022-12-26T00:32:17.565Z,10.42
2022-12-26T00:34:44.101Z,10.47
2022-12-26T00:37:10.637Z,10.53
2022-12-26T00:39:37.123Z,10.54
2022-12-26T00:42:03.759Z,10.56
2022-12-26T00:44:30.264Z,10.61
2022-12-26T00:46:56.890Z,10.58
2022-12-26T00:49:23.545Z,10.57
2022-12-26T00:51:50.039Z,10.51
2022-12-26T00:54:17.743Z,10.52
2022-12-26T00:56:44.221Z,10.57
2022-12-26T00:59:10.730Z,10.59
2022-12-26T01:01:37.392Z,10.65
2022-12-26T01:04:04.779Z,10.69
2022-12-26T01:06:31.363Z,10.62
2022-12-26T01:08:59.427Z,10.62
2022-12-26T01:11:41.117Z,10.64
2022-12-26T01:14:15.222Z,10.63
2022-12-26T01:16:45.271Z,10.69
2022-12-26T01:19:13.626Z,10.62
2022-12-26T01:21:40.893Z,10.61
2022-12-26T01:24:07.467Z,10.68
2022-12-26T01:26:34.038Z,10.71
2022-12-26T01:29:00.491Z,10.68
2022-12-26T01:31:27.012Z,10.70
2022-12-26T01:33:53.486Z,10.70
2022-12-26T01:36:20.141Z,10.75
2022-12-26T01:38:46.692Z,10.73
2022-12-26T01:41:16.639Z,10.63
2022-12-26T01:44:06.789Z,10.52
2022-12-26T01:46:45.751Z,10.53
2022-12-26T01:49:33.926Z,10.52
2022-12-26T01:52:06.875Z,10.47
2022-12-26T01:54:42.572Z,10.53
2022-12-26T01:57:24.463Z,10.55
2022-12-26T01:59:53.320Z,10.55
2022-12-26T02:02:23.229Z,10.59
2022-12-26T02:05:10.463Z,10.65
2022-12-26T02:07:40.527Z,10.25
2022-12-26T02:10:15.586Z,10.45
2022-12-26T02:12:43.008Z,10.50
2022-12-26T02:15:23.749Z,10.46
2022-12-26T02:17:50.189Z,10.53
2022-12-26T02:20:29.636Z,10.56
2022-12-26T02:23:42.787Z,10.54
2022-12-26T02:26:41.866Z,10.51
2022-12-26T02:30:05.632Z,10.47
2022-12-26T02:33:14.527Z,10.37
2022-12-26T02:35:53.039Z,10.48
2022-12-26T02:38:47.482Z,10.55
2022-12-26T02:41:55.129Z,10.48
2022-12-26T02:45:17.830Z,10.45
2022-12-26T02:48:13.601Z,10.37
2022-12-26T02:51:32.670Z,10.41
2022-12-26T02:54:42.324Z,10.44
2022-12-26T02:57:37.608Z,10.39
2022-12-26T03:00:34.969Z,10.32
2022-12-26T03:03:29.525Z,10.31
2022-12-26T03:06:33.385Z,10.26
2022-12-26T03:09:53.821Z,10.22
2022-12-26T03:12:38.545Z,10.29
2022-12-26T03:15:18.060Z,10.36
2022-12-26T03:17:57.225Z,10.44
2022-12-26T03:20:32.300Z,10.41
2022-12-26T03:23:08.044Z,10.31
2022-12-26T03:26:22.221Z,10.33
2022-12-26T03:28:48.736Z,10.33
2022-12-26T03:31:16.610Z,10.46
2022-12-26T03:34:05.518Z,10.47
2022-12-26T03:37:13.620Z,10.30
2022-12-26T03:40:04.686Z,9.97
2022-12-26T03:43:14.007Z,10.14
2022-12-26T03:46:20.367Z,10.15
2022-12-26T03:49:11.600Z,10.24
2022-12-26T03:52:18.127Z,10.28
2022-12-26T03:55:29.271Z,10.35
2022-12-26T03:58:47.918Z,10.36
2022-12-26T04:01:38.234Z,10.07
2022-12-26T04:04:49.790Z,10.14
2022-12-26T04:07:56.102Z,10.22
2022-12-26T04:10:58.306Z,10.13
2022-12-26T04:14:03.783Z,10.23
2022-12-26T04:16:59.633Z,10.23
2022-12-26T04:20:09.188Z,10.23
2022-12-26T04:23:05.905Z,10.16
2022-12-26T04:26:11.452Z,10.16
2022-12-26T04:28:56.780Z,10.32
2022-12-26T04:32:09.834Z,10.22
2022-12-26T04:35:09.168Z,10.29
2022-12-26T04:38:02.227Z,10.27
2022-12-26T04:40:55.452Z,10.26
2022-12-26T04:43:50.443Z,10.27
2022-12-26T04:46:24.720Z,10.28
2022-12-26T04:49:12.963Z,10.33
2022-12-26T04:51:39.821Z,10.36
2022-12-26T04:54:07.165Z,10.40
2022-12-26T04:56:33.953Z,10.32
2022-12-26T04:59:01.072Z,10.40
2022-12-26T05:01:46.270Z,10.38
2022-12-26T05:04:34.534Z,10.36
2022-12-26T05:07:22.816Z,10.32
2022-12-26T05:09:53.168Z,10.29
2022-12-26T05:12:20.354Z,10.28
2022-12-26T05:14:46.815Z,10.31
2022-12-26T05:17:33.018Z,10.31
2022-12-26T05:20:18.203Z,10.27
2022-12-26T05:23:04.974Z,10.34
2022-12-26T05:25:56.441Z,10.26
2022-12-26T05:28:41.619Z,10.27
2022-12-26T05:31:11.229Z,10.35
2022-12-26T05:33:56.556Z,10.37
2022-12-26T05:36:28.749Z,10.29
2022-12-26T05:38:56.148Z,10.27
2022-12-26T05:41:24.014Z,10.32
2022-12-26T05:43:50.661Z,10.27
2022-12-26T05:46:17.211Z,10.16
2022-12-26T05:48:43.844Z,10.11
2022-12-26T05:51:10.329Z,10.13
2022-12-26T05:53:36.811Z,10.06
2022-12-26T05:56:11.849Z,10.06
2022-12-26T05:58:39.131Z,10.07
2022-12-26T06:01:16.173Z,10.04
2022-12-26T06:03:47.516Z,10.09
2022-12-26T06:06:16.022Z,10.06
2022-12-26T06:08:43.274Z,10.09
2022-12-26T06:11:12.871Z,9.97
2022-12-26T06:13:41.138Z,9.99
2022-12-26T06:16:18.498Z,10.01
2022-12-26T06:18:45.228Z,10.06
2022-12-26T06:21:16.814Z,10.09
2022-12-26T06:23:43.672Z,10.10
2022-12-26T06:26:12.505Z,10.11
2022-12-26T06:28:41.729Z,10.05
2022-12-26T06:31:14.354Z,9.93
2022-12-26T06:33:40.977Z,9.98
2022-12-26T06:36:14.821Z,9.98
2022-12-26T06:38:42.252Z,10.00
2022-12-26T06:41:13.996Z,10.03
2022-12-26T06:43:40.887Z,10.02
2022-12-26T06:46:12.762Z,9.98
2022-12-26T06:48:39.808Z,9.99
2022-12-26T06:51:16.481Z,9.67
2022-12-26T06:53:43.529Z,9.57
2022-12-26T06:56:22.812Z,9.50
2022-12-26T06:58:54.727Z,9.56
2022-12-26T07:01:22.853Z,9.47
2022-12-26T07:03:52.550Z,9.35
2022-12-26T07:06:26.899Z,8.86
2022-12-26T07:09:03.261Z,8.61
2022-12-26T07:11:35.164Z,8.17
2022-12-26T07:14:02.338Z,8.20
2022-12-26T07:16:29.080Z,8.23
2022-12-26T07:18:58.303Z,8.22
2022-12-26T07:21:26.512Z,8.16
2022-12-26T07:23:54.828Z,8.13
2022-12-26T07:26:23.598Z,8.04
2022-12-26T07:28:57.140Z,8.00
2022-12-26T07:31:25.413Z,8.10
2022-12-26T07:33:55.864Z,8.05
2022-12-26T07:36:24.941Z,8.06
2022-12-26T07:38:51.543Z,8.14
2022-12-26T07:41:36.865Z,8.11
2022-12-26T07:44:03.822Z,8.10
2022-12-26T07:46:30.633Z,8.05
2022-12-26T07:48:57.321Z,8.07
2022-12-26T07:51:23.948Z,8.15
2022-12-26T07:53:50.602Z,8.20
2022-12-26T07:56:17.180Z,8.21
2022-12-26T07:58:43.852Z,8.24
2022-12-26T08:01:10.471Z,8.33
2022-12-26T08:03:38.190Z,8.37
2022-12-26T08:06:04.829Z,8.47
2022-12-26T08:08:31.330Z,8.55
2022-12-26T08:11:06.841Z,8.57
2022-12-26T08:13:33.864Z,8.62
2022-12-26T08:16:06.994Z,8.68
2022-12-26T08:18:34.049Z,8.79
2022-12-26T08:21:00.610Z,8.91
2022-12-26T08:23:27.842Z,9.02
2022-12-26T08:25:54.699Z,8.99
2022-12-26T08:28:21.362Z,9.09
2022-12-26T08:30:49.701Z,9.14
2022-12-26T08:33:16.639Z,9.11
2022-12-26T08:35:43.930Z,9.16
2022-12-26T08:38:10.518Z,9.06
2022-12-26T08:40:44.953Z,8.91
2022-12-26T08:43:30.185Z,8.89
2022-12-26T08:46:11.638Z,8.92
2022-12-26T08:48:40.438Z,9.01
2022-12-26T08:51:13.854Z,9.02
2022-12-26T08:53:40.778Z,9.02
2022-12-26T08:56:13.754Z,9.11
2022-12-26T08:58:42.041Z,9.18
2022-12-26T09:01:16.523Z,9.19
2022-12-26T09:03:44.464Z,9.24
2022-12-26T09:06:14.293Z,9.23
2022-12-26T09:08:42.220Z,9.21
2022-12-26T09:11:14.201Z,9.27
2022-12-26T09:13:42.938Z,9.33
2022-12-26T09:16:22.711Z,9.35
2022-12-26T09:18:56.088Z,9.36
2022-12-26T09:21:23.667Z,9.42
2022-12-26T09:23:50.936Z,9.43
2022-12-26T09:26:20.164Z,9.46
2022-12-26T09:28:47.817Z,9.45
2022-12-26T09:31:24.437Z,9.41
2022-12-26T09:33:52.450Z,9.15
2022-12-26T09:36:24.951Z,9.30
2022-12-26T09:38:52.918Z,9.37
2022-12-26T09:42:01.607Z,9.33
2022-12-26T09:44:55.506Z,9.40
2022-12-26T09:48:28.392Z,9.45
2022-12-26T09:50:55.049Z,9.65
2022-12-26T09:53:35.908Z,9.73
2022-12-26T09:56:13.954Z,9.83
2022-12-26T09:58:56.563Z,9.92
2022-12-26T10:01:36.144Z,9.83
2022-12-26T10:04:13.373Z,9.82
2022-12-26T10:06:57.415Z,9.82
2022-12-26T10:09:44.066Z,9.86
2022-12-26T10:12:41.638Z,9.88
2022-12-26T10:15:41.748Z,9.53
2022-12-26T10:18:35.715Z,9.66
2022-12-26T10:21:29.336Z,9.72
2022-12-26T10:24:09.164Z,9.84
2022-12-26T10:26:43.769Z,9.89
2022-12-26T10:29:10.170Z,9.94
2022-12-26T10:31:52.476Z,10.00
2022-12-26T10:34:21.177Z,10.05
2022-12-26T10:36:54.849Z,10.09
2022-12-26T10:39:30.478Z,10.15
2022-12-26T10:42:03.745Z,10.18
2022-12-26T10:44:30.268Z,10.18
2022-12-26T10:47:24.791Z,10.16
2022-12-26T10:49:52.333Z,10.22
2022-12-26T10:52:26.255Z,10.18
2022-12-26T10:55:28.081Z,10.22
2022-12-26T10:57:53.663Z,10.26
2022-12-26T11:00:24.959Z,10.39
2022-12-26T11:03:15.629Z,10.46
2022-12-26T11:06:08.147Z,10.48
2022-12-26T11:08:43.170Z,10.48
2022-12-26T11:11:45.639Z,10.48
2022-12-26T11:14:39.671Z,10.49
2022-12-26T11:17:12.685Z,10.59
2022-12-26T11:19:44.000Z,10.62
2022-12-26T11:22:29.050Z,10.45
2022-12-26T11:25:13.706Z,10.47
2022-12-26T11:27:44.406Z,10.40
2022-12-26T11:30:13.773Z,10.51
2022-12-26T11:32:48.460Z,10.41
2022-12-26T11:35:28.359Z,10.35
2022-12-26T11:37:58.122Z,10.39
2022-12-26T11:40:38.136Z,10.48
2022-12-26T11:43:15.539Z,10.36
2022-12-26T11:45:50.062Z,10.37
2022-12-26T11:48:25.792Z,10.33
2022-12-26T11:50:53.874Z,10.21
2022-12-26T11:53:23.557Z,10.36
2022-12-26T11:56:04.741Z,10.36
2022-12-26T11:58:35.433Z,10.42
2022-12-26T12:01:01.798Z,10.44
2022-12-26T12:03:51.131Z,10.38
2022-12-26T12:07:01.011Z,10.23
2022-12-26T12:09:43.230Z,10.28
2022-12-26T12:12:22.573Z,10.34
2022-12-26T12:14:54.796Z,10.38
2022-12-26T12:17:51.771Z,10.31
2022-12-26T12:20:51.984Z,10.16
2022-12-26T12:23:58.720Z,10.12
2022-12-26T12:27:31.082Z,9.92
2022-12-26T12:30:24.319Z,9.80
2022-12-26T12:33:04.580Z,9.90
2022-12-26T12:36:08.383Z,9.96
2022-12-26T12:38:58.089Z,9.96
2022-12-26T12:42:00.629Z,9.96
2022-12-26T12:44:50.370Z,9.89
2022-12-26T12:47:49.953Z,9.98
2022-12-26T12:50:44.042Z,9.96
2022-12-26T12:53:31.349Z,9.91
2022-12-26T12:57:01.628Z,9.86
2022-12-26T12:59:52.647Z,9.96
2022-12-26T13:02:32.700Z,9.93
2022-12-26T13:05:37.097Z,9.84
2022-12-26T13:08:43.103Z,9.97
2022-12-26T13:11:31.643Z,9.71
2022-12-26T13:14:07.375Z,9.76
2022-12-26T13:16:43.539Z,9.82
2022-12-26T13:19:25.413Z,9.88
2022-12-26T13:21:57.479Z,9.87
2022-12-26T13:24:49.690Z,9.85
2022-12-26T13:27:25.689Z,9.91
2022-12-26T13:29:52.616Z,9.96
2022-12-26T13:32:33.354Z,10.00
2022-12-26T13:35:02.888Z,9.90
2022-12-26T13:37:35.221Z,9.86
2022-12-26T13:40:15.169Z,9.88
2022-12-26T13:43:10.722Z,9.88
2022-12-26T13:45:37.271Z,9.88
2022-12-26T13:48:12.669Z,9.92
2022-12-26T13:50:53.415Z,9.93
2022-12-26T13:53:39.913Z,10.02
2022-12-26T13:56:18.262Z,10.10
2022-12-26T13:59:03.262Z,9.85
2022-12-26T14:01:53.696Z,9.79
2022-12-26T14:05:08.959Z,9.54
2022-12-26T14:07:58.830Z,9.33
2022-12-26T14:10:40.077Z,9.22
2022-12-26T14:13:56.618Z,9.31
2022-12-26T14:16:49.077Z,9.33
2022-12-26T14:19:40.032Z,9.40
2022-12-26T14:22:57.385Z,9.50
2022-12-26T14:25:51.162Z,9.17
2022-12-26T14:28:51.090Z,9.29
2022-12-26T14:31:41.991Z,9.27
2022-12-26T14:34:48.264Z,9.10
2022-12-26T14:37:31.551Z,9.08
2022-12-26T14:40:15.313Z,9.19
2022-12-26T14:43:12.640Z,9.25
2022-12-26T14:45:51.028Z,9.30
2022-12-26T14:48:17.557Z,9.08
2022-12-26T14:50:49.172Z,8.95
2022-12-26T14:53:24.788Z,8.76
2022-12-26T14:56:10.273Z,8.73
2022-12-26T14:58:44.319Z,8.76
2022-12-26T15:01:12.714Z,8.66
2022-12-26T15:04:04.102Z,8.57
2022-12-26T15:06:52.523Z,8.46
2022-12-26T15:10:33.634Z,8.27
2022-12-26T15:13:35.608Z,8.00
2022-12-26T15:16:22.596Z,8.08
2022-12-26T15:19:23.393Z,8.08
2022-12-26T15:22:21.698Z,8.17
2022-12-26T15:25:18.889Z,8.28
2022-12-26T15:27:59.151Z,8.31
2022-12-26T15:31:27.892Z,8.32
2022-12-26T15:34:22.129Z,8.35
2022-12-26T15:37:16.152Z,8.45
2022-12-26T15:40:27.352Z,8.42
2022-12-26T15:43:24.659Z,8.32
2022-12-26T15:46:16.114Z,8.25
2022-12-26T15:49:35.784Z,8.20
2022-12-26T15:52:13.019Z,8.04
2022-12-26T15:54:51.304Z,8.09
2022-12-26T15:57:30.744Z,8.22
2022-12-26T16:00:15.938Z,8.26
2022-12-26T16:03:10.202Z,8.18
2022-12-26T16:05:56.593Z,8.15
2022-12-26T16:09:18.888Z,8.13
2022-12-26T16:11:54.039Z,8.23
2022-12-26T16:14:39.202Z,8.29
2022-12-26T16:17:21.220Z,8.27
2022-12-26T16:19:51.858Z,8.27
2022-12-26T16:22:43.615Z,8.04
2022-12-26T16:25:16.978Z,8.08
2022-12-26T16:27:46.922Z,8.19
2022-12-26T16:30:22.329Z,7.99
2022-12-26T16:32:50.438Z,7.87
2022-12-26T16:35:26.705Z,7.82
2022-12-26T16:37:57.559Z,7.76
2022-12-26T16:40:33.790Z,7.69
2022-12-26T16:43:05.873Z,7.77
2022-12-26T16:45:37.367Z,7.69
2022-12-26T16:48:12.152Z,7.38
2022-12-26T16:50:56.496Z,7.37
2022-12-26T16:53:45.313Z,7.19
2022-12-26T16:56:26.786Z,7.12
2022-12-26T16:59:17.826Z,7.20
2022-12-26T17:01:59.339Z,7.23
2022-12-26T17:04:29.938Z,7.33
2022-12-26T17:07:06.539Z,7.29
2022-12-26T17:09:44.830Z,7.33
2022-12-26T17:12:27.024Z,7.35
2022-12-26T17:14:56.694Z,7.49
2022-12-26T17:17:23.118Z,7.27
2022-12-26T17:19:54.428Z,7.21
2022-12-26T17:22:37.308Z,7.20
2022-12-26T17:25:27.850Z,7.15
2022-12-26T17:28:09.937Z,7.18
2022-12-26T17:30:43.273Z,7.02
2022-12-26T17:33:17.705Z,6.93
2022-12-26T17:39:10.806Z,6.89
2022-12-26T17:41:49.002Z,6.99
2022-12-26T17:44:35.471Z,6.88
2022-12-26T17:47:27.003Z,6.80
2022-12-26T17:49:55.732Z,6.88
2022-12-26T17:52:28.696Z,6.84
2022-12-26T17:54:58.551Z,6.86
2022-12-26T17:57:28.519Z,6.74
2022-12-26T17:59:56.089Z,6.67
2022-12-26T18:02:23.680Z,6.39
2022-12-26T18:04:53.855Z,6.51
2022-12-26T18:07:30.879Z,6.51
2022-12-26T18:09:59.305Z,6.58
2022-12-26T18:12:25.877Z,6.62
2022-12-26T18:14:57.528Z,6.60
2022-12-26T18:17:29.492Z,6.46
2022-12-26T18:19:57.659Z,6.43
2022-12-26T18:22:24.136Z,6.49
2022-12-26T18:24:50.628Z,6.35
2022-12-26T18:27:22.873Z,6.41
2022-12-26T18:29:50.252Z,6.46
2022-12-26T18:32:29.523Z,6.30
2022-12-26T18:34:57.076Z,6.30
2022-12-26T18:37:26.538Z,6.35
2022-12-26T18:39:53.429Z,6.25
2022-12-26T18:42:20.210Z,6.34
2022-12-26T18:44:47.039Z,6.40
2022-12-26T18:47:17.906Z,6.44
2022-12-26T18:49:45.958Z,6.50
2022-12-26T18:52:17.903Z,6.43
2022-12-26T18:54:45.423Z,6.27
2022-12-26T18:57:19.324Z,6.17
2022-12-26T18:59:47.994Z,6.28
2022-12-26T19:02:19.376Z,5.90
2022-12-26T19:04:48.409Z,5.88
2022-12-26T19:07:17.402Z,5.51
2022-12-26T19:09:55.801Z,5.50
2022-12-26T19:12:23.845Z,5.54
2022-12-26T19:14:51.176Z,5.47
2022-12-26T19:17:17.945Z,5.29
2022-12-26T19:19:44.656Z,5.09
2022-12-26T19:22:11.709Z,4.99
2022-12-26T19:24:38.233Z,4.86
2022-12-26T19:27:04.940Z,4.73
2022-12-26T19:29:31.566Z,4.52
2022-12-26T19:31:58.149Z,4.51
2022-12-26T19:34:24.621Z,4.42
2022-12-26T19:36:51.124Z,4.31
2022-12-26T19:39:17.728Z,4.27
2022-12-26T19:41:44.268Z,4.23
2022-12-26T19:44:10.855Z,4.28
2022-12-26T19:46:37.342Z,4.26
2022-12-26T19:49:04.125Z,4.11
2022-12-26T19:51:30.611Z,3.99
2022-12-26T19:53:57.107Z,3.92
2022-12-26T19:56:27.877Z,3.87
2022-12-26T19:58:57.013Z,3.80
2022-12-26T20:01:28.510Z,3.73
2022-12-26T20:03:57.988Z,3.49
2022-12-26T20:06:27.616Z,3.42
2022-12-26T20:08:58.587Z,3.43
2022-12-26T20:11:30.684Z,3.50
2022-12-26T20:13:58.921Z,3.53
2022-12-26T20:19:12.869Z,3.38
2022-12-26T20:21:40.694Z,3.27
2022-12-26T20:24:11.351Z,3.16
2022-12-26T20:26:38.386Z,3.19
2022-12-26T20:29:05.197Z,3.16
2022-12-26T20:31:32.994Z,3.16
2022-12-26T20:34:00.182Z,3.10
2022-12-26T20:36:31.411Z,2.96
2022-12-26T20:39:01.370Z,2.88
2022-12-26T20:41:28.962Z,2.87
2022-12-26T20:43:56.232Z,2.85
2022-12-26T20:46:31.988Z,2.84
2022-12-26T20:49:01.823Z,2.72
2022-12-26T20:51:37.364Z,2.73
2022-12-26T20:54:09.347Z,2.70
2022-12-26T20:56:37.384Z,2.55
2022-12-26T20:59:08.387Z,2.61
2022-12-26T21:01:37.449Z,2.68
2022-12-26T21:04:04.334Z,2.71
2022-12-26T21:06:35.904Z,2.58
2022-12-26T21:09:04.625Z,2.52
2022-12-26T21:11:38.181Z,2.47
2022-12-26T21:14:10.398Z,2.42
2022-12-26T21:16:41.890Z,2.44
2022-12-26T21:19:14.976Z,2.43
2022-12-26T21:21:45.701Z,2.41
2022-12-26T21:24:33.990Z,2.33
2022-12-26T21:27:00.746Z,2.27
2022-12-26T21:29:32.557Z,2.20
2022-12-26T21:32:01.462Z,2.05
2022-12-26T21:34:31.525Z,2.00
2022-12-26T21:37:17.329Z,2.01
2022-12-26T21:39:44.250Z,2.08
2022-12-26T21:42:11.245Z,2.15
2022-12-26T21:44:37.971Z,2.16
2022-12-26T21:47:07.826Z,2.16
2022-12-26T21:49:34.991Z,2.02
2022-12-26T21:52:01.612Z,2.00
2022-12-26T21:54:49.311Z,2.00
2022-12-26T21:57:18.052Z,1.94
2022-12-26T21:59:57.394Z,1.93
2022-12-26T22:02:54.112Z,1.89
2022-12-26T22:05:24.527Z,1.83
2022-12-26T22:08:00.398Z,1.80
2022-12-26T22:10:50.159Z,1.68
2022-12-26T22:13:18.647Z,1.69
2022-12-26T22:16:03.793Z,1.65
2022-12-26T22:18:36.133Z,1.66
2022-12-26T22:21:09.143Z,1.54
2022-12-26T22:23:36.994Z,1.50
2022-12-26T22:26:04.712Z,1.47
2022-12-26T22:28:33.591Z,1.43
2022-12-26T22:31:00.860Z,1.45
2022-12-26T22:33:29.063Z,1.47
2022-12-26T22:35:55.814Z,1.37
2022-12-26T22:38:23.449Z,1.37
2022-12-26T22:40:56.152Z,1.33
2022-12-26T22:43:23.691Z,1.29
2022-12-26T22:45:51.311Z,1.18
2022-12-26T22:48:19.069Z,1.16
2022-12-26T22:50:48.849Z,1.20
2022-12-26T22:53:15.336Z,1.15
2022-12-26T22:55:48.719Z,1.23
2022-12-26T22:58:17.409Z,1.31
2022-12-26T23:00:45.824Z,1.33
2022-12-26T23:03:13.152Z,1.29
2022-12-26T23:05:40.736Z,1.18
2022-12-26T23:08:08.391Z,1.17
2022-12-26T23:10:35.680Z,1.17
2022-12-26T23:13:02.823Z,1.14
2022-12-26T23:15:29.827Z,0.99
2022-12-26T23:18:20.771Z,0.96
2022-12-26T23:21:06.507Z,1.03
2022-12-26T23:23:33.409Z,1.03
2022-12-26T23:26:01.227Z,0.97
2022-12-26T23:28:46.879Z,0.80
2022-12-26T23:31:13.896Z,0.74
2022-12-26T23:33:40.768Z,0.84
2022-12-26T23:36:08.021Z,0.87
2022-12-26T23:38:34.496Z,0.92
2022-12-26T23:41:00.983Z,0.97
2022-12-26T23:43:27.508Z,0.96
2022-12-26T23:45:54.040Z,0.99
2022-12-26T23:48:20.537Z,0.98
2022-12-26T23:50:47.149Z,0.80
2022-12-26T23:53:13.642Z,0.67
2022-12-26T23:55:41.716Z,0.63
2022-12-26T23:58:08.772Z,0.68
